San Miguel — WTE9527 — position and weather

sailwx.info

Track history (hours):
 
Tides and Currents Weather Stations Pressure Air Temp Water Temp Dewpoint Dewpoint Depression Visibility Wind Speed Wind Dir Waves Ship Positions

San Miguel

Owner: BUFFALO MARINE SERVICE INC, HOUSTON, TX. More information available from US FCC via Universal Licensing System and Coast Guard Vessel Documentation Center.

Last reported at 2017-Nov-25 03:59 UTC. Time now 2017-Nov-25 04:12 UTC.
Position N 29°45' W 095°06'.

Length 10 m; draft 2.5 m.

Type: Tug. MMSI: 366941840.

Date/timePositionNaut miles runAvg speedWind from/ knotsBaromVisibWave heightAir tempDewpointWater temp
2017-Nov-25 03:59N 29°45' W 095°06'0 0.0
2017-Nov-25 02:05N 29°45' W 095°06'0 0.0
2017-Nov-25 01:56N 29°45' W 095°06'0 0.0
2017-Nov-25 01:22N 29°45' W 095°06'0 0.0
2017-Nov-25 00:20N 29°45' W 095°06'0 0.0
2017-Nov-24 23:44N 29°45' W 095°06'0 0.0
2017-Nov-24 23:27N 29°45' W 095°06'0 0.0
2017-Nov-24 23:00N 29°45' W 095°06'0 0.0
2017-Nov-24 22:29N 29°45' W 095°06'0 0.1
2017-Nov-24 20:19N 29°45' W 095°06'2 7.7
2017-Nov-24 20:00N 29°44' W 095°09'3 6.8
2017-Nov-24 19:30N 29°44' W 095°13'3 6.2
2017-Nov-24 19:00N 29°43' W 095°16'0 0.2
2017-Nov-24 18:29N 29°43' W 095°16'0 0.2
2017-Nov-24 18:00N 29°43' W 095°16'0 0.8
2017-Nov-24 17:30N 29°43' W 095°16'3 5.6
2017-Nov-24 16:57N 29°44' W 095°13'3 5.7
2017-Nov-24 16:30N 29°45' W 095°10'4 5.0
2017-Nov-24 15:41N 29°46' W 095°05'1 1.5
2017-Nov-24 15:07N 29°46' W 095°06'1 3.2
2017-Nov-24 14:55N 29°46' W 095°06'1 2.2
2017-Nov-24 14:24N 29°45' W 095°06'0 0.0
2017-Nov-24 07:41N 29°45' W 095°06'0 0.0
2017-Nov-24 07:29N 29°45' W 095°06'0 0.0
2017-Nov-24 06:50N 29°45' W 095°06'0 0.0
2017-Nov-24 06:28N 29°45' W 095°06'0 0.0
2017-Nov-24 05:52N 29°45' W 095°06'0 0.0
2017-Nov-24 05:29N 29°45' W 095°06'0 0.0
2017-Nov-24 04:58N 29°45' W 095°06'0 0.0
2017-Nov-24 04:28N 29°45' W 095°06'0 0.1
2017-Nov-24 04:00N 29°45' W 095°06'1 2.8
2017-Nov-24 03:30N 29°46' W 095°05'1 1.1
2017-Nov-24 02:44N 29°47' W 095°06'0 0.0
2017-Nov-22 23:10N 29°46' W 095°06'1 2.9
2017-Nov-22 22:58N 29°46' W 095°05'1 0.6
2017-Nov-22 21:36N 29°46' W 095°06'3 1.8
2017-Nov-22 19:52N 29°44' W 095°03'  
2017-Nov-18 21:54N 29°46' W 095°05'2 5.8
2017-Nov-18 21:30N 29°44' W 095°03'3 5.2
2017-Nov-18 21:00N 29°42' W 095°01'3 5.6
2017-Nov-18 20:29N 29°40' W 094°59'3 5.2
2017-Nov-18 20:00N 29°38' W 094°58'3 5.3
2017-Nov-18 19:31N 29°35' W 094°56'4 5.4
2017-Nov-18 18:44N 29°32' W 094°54'1 5.3
2017-Nov-18 18:28N 29°31' W 094°53'2 0.1
2017-Nov-18 04:29N 29°29' W 094°52'2 5.0
2017-Nov-18 04:00N 29°31' W 094°53'3 5.0
2017-Nov-18 03:30N 29°33' W 094°55'2 4.3
2017-Nov-18 03:00N 29°35' W 094°56'3 5.4
2017-Nov-18 02:30N 29°37' W 094°58'3 5.6
2017-Nov-18 02:00N 29°40' W 094°59'3 5.1
2017-Nov-18 01:30N 29°42' W 095°00'2 4.3
2017-Nov-18 00:57N 29°44' W 095°02'1 1.9
2017-Nov-18 00:27N 29°44' W 095°03'0 0.0
2017-Nov-17 18:15N 29°44' W 095°03'0 0.0
2017-Nov-17 08:14N 29°44' W 095°03'0 0.9
2017-Nov-17 07:55N 29°44' W 095°03'1 2.1
2017-Nov-17 07:23N 29°45' W 095°04'2 4.3
2017-Nov-17 06:55N 29°45' W 095°06'3 6.0
2017-Nov-17 06:28N 29°44' W 095°09'3 5.5
2017-Nov-17 05:57N 29°44' W 095°13'3 5.5
2017-Nov-17 05:29N 29°44' W 095°15'2 4.1
2017-Nov-17 05:00N 29°45' W 095°17'0 0.0
2017-Nov-17 04:30N 29°45' W 095°17'0 0.0
2017-Nov-17 04:00N 29°45' W 095°17'0 0.0
2017-Nov-17 03:30N 29°45' W 095°17'0 0.0
2017-Nov-17 03:00N 29°45' W 095°17'0 0.0
2017-Nov-17 02:30N 29°45' W 095°17'0 0.8
2017-Nov-17 02:00N 29°45' W 095°17'1 0.3
2017-Nov-16 23:01N 29°44' W 095°17'0 0.0
2017-Nov-16 22:43N 29°44' W 095°17'0 0.0
2017-Nov-16 19:29N 29°44' W 095°17'0 0.0
2017-Nov-16 18:56N 29°44' W 095°17'0 0.7
2017-Nov-16 18:30N 29°44' W 095°17'1 1.8
2017-Nov-16 18:00N 29°45' W 095°17'0 0.0
2017-Nov-16 17:30N 29°45' W 095°17'0 0.0
2017-Nov-16 17:00N 29°45' W 095°17'0 0.0
2017-Nov-16 16:30N 29°45' W 095°17'0 0.0
2017-Nov-16 16:00N 29°45' W 095°17'0 0.0
2017-Nov-16 15:30N 29°45' W 095°17'0 0.0
2017-Nov-16 15:00N 29°45' W 095°17'0 0.0
2017-Nov-16 14:30N 29°45' W 095°17'0 0.0
2017-Nov-16 14:00N 29°45' W 095°17'0 0.0
2017-Nov-16 13:30N 29°45' W 095°17'0 0.0
2017-Nov-16 13:00N 29°45' W 095°17'0 0.0
2017-Nov-16 12:29N 29°45' W 095°17'0 0.0
2017-Nov-16 12:00N 29°45' W 095°17'0 0.0
2017-Nov-16 11:30N 29°45' W 095°17'0 0.0
2017-Nov-16 11:00N 29°45' W 095°17'0 0.0
2017-Nov-16 10:30N 29°45' W 095°17'0 0.2
2017-Nov-16 10:00N 29°45' W 095°17'2 4.3
2017-Nov-16 09:28N 29°43' W 095°15'3 4.9
2017-Nov-16 08:55N 29°44' W 095°12'3 5.3
2017-Nov-16 08:26N 29°44' W 095°09'2 5.6
2017-Nov-16 08:00N 29°45' W 095°06'0 0.1
2017-Nov-16 02:04N 29°45' W 095°07'0 0.1
2017-Nov-16 01:57N 29°45' W 095°07'0 0.0
2017-Nov-16 00:55N 29°45' W 095°07'0 0.5
2017-Nov-16 00:01N 29°45' W 095°06'0 4.0
2017-Nov-15 23:54N 29°44' W 095°07'2 3.9
2017-Nov-15 23:29N 29°44' W 095°08'3 4.3
2017-Nov-15 22:51N 29°45' W 095°12'2 5.0
2017-Nov-15 22:27N 29°44' W 095°13'0 0.3
2017-Nov-15 21:58N 29°44' W 095°13'0 0.0
2017-Nov-15 21:14N 29°44' W 095°13'0 0.0
2017-Nov-15 20:59N 29°44' W 095°13'0 0.0
2017-Nov-15 20:11N 29°44' W 095°13'0 0.0
2017-Nov-15 19:57N 29°44' W 095°13'0 0.0
2017-Nov-15 14:42N 29°44' W 095°13'0 0.5
2017-Nov-15 14:29N 29°44' W 095°13'2 3.3
2017-Nov-15 13:56N 29°45' W 095°12'2 5.1
2017-Nov-15 13:28N 29°44' W 095°09'3 5.4
2017-Nov-15 12:55N 29°45' W 095°06'  
Track history (hours):
 
Tides and Currents Weather Stations Pressure Air Temp Water Temp Dewpoint Dewpoint Depression Visibility Wind Speed Wind Dir Waves Ship Positions

San Miguel

Owner: BUFFALO MARINE SERVICE INC, HOUSTON, TX. More information available from US FCC via Universal Licensing System and Coast Guard Vessel Documentation Center.

Last reported at 2017-Nov-25 03:59 UTC. Time now 2017-Nov-25 04:12 UTC.
Position N 29°45' W 095°06'.

Length 10 m; draft 2.5 m.

Type: Tug. MMSI: 366941840.

Date/timePositionNaut miles runAvg speedWind from/ knotsBaromVisibWave heightAir tempDewpointWater temp
2017-Nov-25 03:59N 29°45' W 095°06'0 0.0
2017-Nov-25 02:05N 29°45' W 095°06'0 0.0
2017-Nov-25 01:56N 29°45' W 095°06'0 0.0
2017-Nov-25 01:22N 29°45' W 095°06'0 0.0
2017-Nov-25 00:20N 29°45' W 095°06'0 0.0
2017-Nov-24 23:44N 29°45' W 095°06'0 0.0
2017-Nov-24 23:27N 29°45' W 095°06'0 0.0
2017-Nov-24 23:00N 29°45' W 095°06'0 0.0
2017-Nov-24 22:29N 29°45' W 095°06'0 0.1
2017-Nov-24 20:19N 29°45' W 095°06'2 7.7
2017-Nov-24 20:00N 29°44' W 095°09'3 6.8
2017-Nov-24 19:30N 29°44' W 095°13'3 6.2
2017-Nov-24 19:00N 29°43' W 095°16'0 0.2
2017-Nov-24 18:29N 29°43' W 095°16'0 0.2
2017-Nov-24 18:00N 29°43' W 095°16'0 0.8
2017-Nov-24 17:30N 29°43' W 095°16'3 5.6
2017-Nov-24 16:57N 29°44' W 095°13'3 5.7
2017-Nov-24 16:30N 29°45' W 095°10'4 5.0
2017-Nov-24 15:41N 29°46' W 095°05'1 1.5
2017-Nov-24 15:07N 29°46' W 095°06'1 3.2
2017-Nov-24 14:55N 29°46' W 095°06'1 2.2
2017-Nov-24 14:24N 29°45' W 095°06'0 0.0
2017-Nov-24 07:41N 29°45' W 095°06'0 0.0
2017-Nov-24 07:29N 29°45' W 095°06'0 0.0
2017-Nov-24 06:50N 29°45' W 095°06'0 0.0
2017-Nov-24 06:28N 29°45' W 095°06'0 0.0
2017-Nov-24 05:52N 29°45' W 095°06'0 0.0
2017-Nov-24 05:29N 29°45' W 095°06'0 0.0
2017-Nov-24 04:58N 29°45' W 095°06'0 0.0
2017-Nov-24 04:28N 29°45' W 095°06'0 0.1
2017-Nov-24 04:00N 29°45' W 095°06'1 2.8
2017-Nov-24 03:30N 29°46' W 095°05'1 1.1
2017-Nov-24 02:44N 29°47' W 095°06'0 0.0
2017-Nov-22 23:10N 29°46' W 095°06'1 2.9
2017-Nov-22 22:58N 29°46' W 095°05'1 0.6
2017-Nov-22 21:36N 29°46' W 095°06'3 1.8
2017-Nov-22 19:52N 29°44' W 095°03'  
2017-Nov-18 21:54N 29°46' W 095°05'2 5.8
2017-Nov-18 21:30N 29°44' W 095°03'3 5.2
2017-Nov-18 21:00N 29°42' W 095°01'3 5.6
2017-Nov-18 20:29N 29°40' W 094°59'3 5.2
2017-Nov-18 20:00N 29°38' W 094°58'3 5.3
2017-Nov-18 19:31N 29°35' W 094°56'4 5.4
2017-Nov-18 18:44N 29°32' W 094°54'1 5.3
2017-Nov-18 18:28N 29°31' W 094°53'2 0.1
2017-Nov-18 04:29N 29°29' W 094°52'2 5.0
2017-Nov-18 04:00N 29°31' W 094°53'3 5.0
2017-Nov-18 03:30N 29°33' W 094°55'2 4.3
2017-Nov-18 03:00N 29°35' W 094°56'3 5.4
2017-Nov-18 02:30N 29°37' W 094°58'3 5.6
2017-Nov-18 02:00N 29°40' W 094°59'3 5.1
2017-Nov-18 01:30N 29°42' W 095°00'2 4.3
2017-Nov-18 00:57N 29°44' W 095°02'1 1.9
2017-Nov-18 00:27N 29°44' W 095°03'0 0.0
2017-Nov-17 18:15N 29°44' W 095°03'0 0.0
2017-Nov-17 08:14N 29°44' W 095°03'0 0.9
2017-Nov-17 07:55N 29°44' W 095°03'1 2.1
2017-Nov-17 07:23N 29°45' W 095°04'2 4.3
2017-Nov-17 06:55N 29°45' W 095°06'3 6.0
2017-Nov-17 06:28N 29°44' W 095°09'3 5.5
2017-Nov-17 05:57N 29°44' W 095°13'3 5.5
2017-Nov-17 05:29N 29°44' W 095°15'2 4.1
2017-Nov-17 05:00N 29°45' W 095°17'0 0.0
2017-Nov-17 04:30N 29°45' W 095°17'0 0.0
2017-Nov-17 04:00N 29°45' W 095°17'0 0.0
2017-Nov-17 03:30N 29°45' W 095°17'0 0.0
2017-Nov-17 03:00N 29°45' W 095°17'0 0.0
2017-Nov-17 02:30N 29°45' W 095°17'0 0.8
2017-Nov-17 02:00N 29°45' W 095°17'1 0.3
2017-Nov-16 23:01N 29°44' W 095°17'0 0.0
2017-Nov-16 22:43N 29°44' W 095°17'0 0.0
2017-Nov-16 19:29N 29°44' W 095°17'0 0.0
2017-Nov-16 18:56N 29°44' W 095°17'0 0.7
2017-Nov-16 18:30N 29°44' W 095°17'1 1.8
2017-Nov-16 18:00N 29°45' W 095°17'0 0.0
2017-Nov-16 17:30N 29°45' W 095°17'0 0.0
2017-Nov-16 17:00N 29°45' W 095°17'0 0.0
2017-Nov-16 16:30N 29°45' W 095°17'0 0.0
2017-Nov-16 16:00N 29°45' W 095°17'0 0.0
2017-Nov-16 15:30N 29°45' W 095°17'0 0.0
2017-Nov-16 15:00N 29°45' W 095°17'0 0.0
2017-Nov-16 14:30N 29°45' W 095°17'0 0.0
2017-Nov-16 14:00N 29°45' W 095°17'0 0.0
2017-Nov-16 13:30N 29°45' W 095°17'0 0.0
2017-Nov-16 13:00N 29°45' W 095°17'0 0.0
2017-Nov-16 12:29N 29°45' W 095°17'0 0.0
2017-Nov-16 12:00N 29°45' W 095°17'0 0.0
2017-Nov-16 11:30N 29°45' W 095°17'0 0.0
2017-Nov-16 11:00N 29°45' W 095°17'0 0.0
2017-Nov-16 10:30N 29°45' W 095°17'0 0.2
2017-Nov-16 10:00N 29°45' W 095°17'2 4.3
2017-Nov-16 09:28N 29°43' W 095°15'3 4.9
2017-Nov-16 08:55N 29°44' W 095°12'3 5.3
2017-Nov-16 08:26N 29°44' W 095°09'2 5.6
2017-Nov-16 08:00N 29°45' W 095°06'0 0.1
2017-Nov-16 02:04N 29°45' W 095°07'0 0.1
2017-Nov-16 01:57N 29°45' W 095°07'0 0.0
2017-Nov-16 00:55N 29°45' W 095°07'0 0.5
2017-Nov-16 00:01N 29°45' W 095°06'0 4.0
2017-Nov-15 23:54N 29°44' W 095°07'2 3.9
2017-Nov-15 23:29N 29°44' W 095°08'3 4.3
2017-Nov-15 22:51N 29°45' W 095°12'2 5.0
2017-Nov-15 22:27N 29°44' W 095°13'0 0.3
2017-Nov-15 21:58N 29°44' W 095°13'0 0.0
2017-Nov-15 21:14N 29°44' W 095°13'0 0.0
2017-Nov-15 20:59N 29°44' W 095°13'0 0.0
2017-Nov-15 20:11N 29°44' W 095°13'0 0.0
2017-Nov-15 19:57N 29°44' W 095°13'0 0.0
2017-Nov-15 14:42N 29°44' W 095°13'0 0.5
2017-Nov-15 14:29N 29°44' W 095°13'2 3.3
2017-Nov-15 13:56N 29°45' W 095°12'2 5.1
2017-Nov-15 13:28N 29°44' W 095°09'3 5.4
2017-Nov-15 12:55N 29°45' W 095°06'  

Dump ship's entire track history